sensor_id;sensor_type;location;lat;lon;timestamp;pressure;altitude;pressure_sealevel;temperature;humidity
55550;BME280;41397;49.972;18.944;2024-03-02T00:02:24;101233.69;;;11.81;81.83
55550;BME280;41397;49.972;18.944;2024-03-02T00:05:26;101236.32;;;11.83;81.66
55550;BME280;41397;49.972;18.944;2024-03-02T00:08:27;101236.42;;;11.81;81.69
55550;BME280;41397;49.972;18.944;2024-03-02T00:11:28;101236.68;;;11.78;81.70
55550;BME280;41397;49.972;18.944;2024-03-02T00:14:30;101240.66;;;11.74;81.59
55550;BME280;41397;49.972;18.944;2024-03-02T00:17:31;101241.42;;;11.76;81.66
55550;BME280;41397;49.972;18.944;2024-03-02T00:20:32;101231.96;;;11.80;81.36
55550;BME280;41397;49.972;18.944;2024-03-02T00:23:34;101242.30;;;11.76;81.57
55550;BME280;41397;49.972;18.944;2024-03-02T00:26:35;101242.92;;;11.80;81.59
55550;BME280;41397;49.972;18.944;2024-03-02T00:29:36;101240.94;;;11.82;81.38
55550;BME280;41397;49.972;18.944;2024-03-02T00:32:37;101247.93;;;11.86;81.29
55550;BME280;41397;49.972;18.944;2024-03-02T00:35:39;101252.76;;;11.83;81.27
55550;BME280;41397;49.972;18.944;2024-03-02T00:38:48;101243.53;;;11.84;81.23
55550;BME280;41397;49.972;18.944;2024-03-02T00:41:50;101241.70;;;11.84;81.14
55550;BME280;41397;49.972;18.944;2024-03-02T00:44:51;101245.30;;;11.85;81.03
55550;BME280;41397;49.972;18.944;2024-03-02T00:47:52;101246.27;;;11.84;81.03
55550;BME280;41397;49.972;18.944;2024-03-02T00:50:54;101249.16;;;11.82;80.84
55550;BME280;41397;49.972;18.944;2024-03-02T00:54:01;101244.55;;;11.83;80.91
55550;BME280;41397;49.972;18.944;2024-03-02T00:57:04;101237.94;;;11.85;80.91
55550;BME280;41397;49.972;18.944;2024-03-02T01:00:06;101245.80;;;11.78;80.39
55550;BME280;41397;49.972;18.944;2024-03-02T01:03:12;101241.42;;;11.76;80.60
55550;BME280;41397;49.972;18.944;2024-03-02T01:06:19;101244.52;;;11.71;80.69
55550;BME280;41397;49.972;18.944;2024-03-02T01:09:20;101239.03;;;11.60;81.00
55550;BME280;41397;49.972;18.944;2024-03-02T01:12:21;101236.40;;;11.59;80.89
55550;BME280;41397;49.972;18.944;2024-03-02T01:15:22;101231.31;;;11.54;80.96
55550;BME280;41397;49.972;18.944;2024-03-02T01:18:27;101217.98;;;11.61;81.04
55550;BME280;41397;49.972;18.944;2024-03-02T01:21:28;101226.55;;;11.56;81.13
55550;BME280;41397;49.972;18.944;2024-03-02T01:24:29;101219.20;;;11.56;81.03
55550;BME280;41397;49.972;18.944;2024-03-02T01:27:30;101229.53;;;11.53;80.93
55550;BME280;41397;49.972;18.944;2024-03-02T01:30:35;101221.68;;;11.48;81.02
55550;BME280;41397;49.972;18.944;2024-03-02T01:33:36;101207.88;;;11.50;81.19
55550;BME280;41397;49.972;18.944;2024-03-02T01:36:37;101210.25;;;11.54;80.99
55550;BME280;41397;49.972;18.944;2024-03-02T01:39:39;101215.47;;;11.46;80.98
55550;BME280;41397;49.972;18.944;2024-03-02T01:42:43;101211.48;;;11.50;81.13
55550;BME280;41397;49.972;18.944;2024-03-02T01:45:44;101210.73;;;11.48;81.14
55550;BME280;41397;49.972;18.944;2024-03-02T01:48:45;101195.70;;;11.54;81.11
55550;BME280;41397;49.972;18.944;2024-03-02T01:51:46;101200.66;;;11.49;80.70
55550;BME280;41397;49.972;18.944;2024-03-02T01:54:51;101197.41;;;11.44;80.91
55550;BME280;41397;49.972;18.944;2024-03-02T01:57:52;101193.29;;;11.38;80.98
55550;BME280;41397;49.972;18.944;2024-03-02T02:00:54;101190.91;;;11.33;80.98
55550;BME280;41397;49.972;18.944;2024-03-02T02:03:55;101180.20;;;11.30;81.17
55550;BME280;41397;49.972;18.944;2024-03-02T02:06:59;101192.79;;;11.33;81.20
55550;BME280;41397;49.972;18.944;2024-03-02T02:10:00;101197.77;;;11.39;81.05
55550;BME280;41397;49.972;18.944;2024-03-02T02:13:02;101187.17;;;11.34;81.06
55550;BME280;41397;49.972;18.944;2024-03-02T02:16:07;101182.35;;;11.38;80.73
55550;BME280;41397;49.972;18.944;2024-03-02T02:19:09;101177.97;;;11.36;80.91
55550;BME280;41397;49.972;18.944;2024-03-02T02:22:11;101179.72;;;11.37;80.80
55550;BME280;41397;49.972;18.944;2024-03-02T02:25:12;101174.21;;;11.25;81.04
55550;BME280;41397;49.972;18.944;2024-03-02T02:28:13;101170.59;;;11.14;81.27
55550;BME280;41397;49.972;18.944;2024-03-02T02:31:15;101183.66;;;11.21;81.23
55550;BME280;41397;49.972;18.944;2024-03-02T02:34:17;101182.31;;;11.27;81.09
55550;BME280;41397;49.972;18.944;2024-03-02T02:37:18;101186.17;;;11.24;80.91
55550;BME280;41397;49.972;18.944;2024-03-02T02:40:20;101180.05;;;11.32;81.10
55550;BME280;41397;49.972;18.944;2024-03-02T02:43:23;101182.80;;;11.32;80.91
55550;BME280;41397;49.972;18.944;2024-03-02T02:46:24;101182.70;;;11.33;80.96
55550;BME280;41397;49.972;18.944;2024-03-02T02:49:25;101183.45;;;11.36;80.55
55550;BME280;41397;49.972;18.944;2024-03-02T02:52:31;101185.19;;;11.37;80.75
55550;BME280;41397;49.972;18.944;2024-03-02T02:55:34;101187.82;;;11.38;80.36
55550;BME280;41397;49.972;18.944;2024-03-02T02:58:35;101181.85;;;11.44;80.30
55550;BME280;41397;49.972;18.944;2024-03-02T03:01:36;101188.44;;;11.42;80.05
55550;BME280;41397;49.972;18.944;2024-03-02T03:04:39;101191.17;;;11.42;80.18
55550;BME280;41397;49.972;18.944;2024-03-02T03:07:41;101191.78;;;11.34;80.10
55550;BME280;41397;49.972;18.944;2024-03-02T03:10:42;101184.22;;;11.38;79.97
55550;BME280;41397;49.972;18.944;2024-03-02T03:13:44;101188.07;;;11.35;80.13
55550;BME280;41397;49.972;18.944;2024-03-02T03:16:46;101186.06;;;11.37;80.03
55550;BME280;41397;49.972;18.944;2024-03-02T03:19:49;101183.80;;;11.31;80.17
55550;BME280;41397;49.972;18.944;2024-03-02T03:22:51;101189.80;;;11.36;79.95
55550;BME280;41397;49.972;18.944;2024-03-02T03:25:52;101192.54;;;11.36;79.91
55550;BME280;41397;49.972;18.944;2024-03-02T03:28:53;101201.37;;;11.40;80.04
55550;BME280;41397;49.972;18.944;2024-03-02T03:31:56;101203.38;;;11.38;80.03
55550;BME280;41397;49.972;18.944;2024-03-02T03:34:57;101204.76;;;11.43;79.95
55550;BME280;41397;49.972;18.944;2024-03-02T03:37:59;101205.11;;;11.39;79.77
55550;BME280;41397;49.972;18.944;2024-03-02T03:41:00;101190.41;;;11.40;79.80
55550;BME280;41397;49.972;18.944;2024-03-02T03:44:05;101193.54;;;11.35;79.71
55550;BME280;41397;49.972;18.944;2024-03-02T03:47:07;101195.27;;;11.36;79.64
55550;BME280;41397;49.972;18.944;2024-03-02T03:50:08;101183.55;;;11.34;79.51
55550;BME280;41397;49.972;18.944;2024-03-02T03:53:10;101180.95;;;11.32;79.75
55550;BME280;41397;49.972;18.944;2024-03-02T03:56:13;101180.95;;;11.32;79.71
55550;BME280;41397;49.972;18.944;2024-03-02T03:59:14;101173.96;;;11.28;79.56
55550;BME280;41397;49.972;18.944;2024-03-02T04:02:15;101174.73;;;11.30;79.73
55550;BME280;41397;49.972;18.944;2024-03-02T04:05:16;101174.83;;;11.29;79.69
55550;BME280;41397;49.972;18.944;2024-03-02T04:08:21;101177.33;;;11.32;79.68
55550;BME280;41397;49.972;18.944;2024-03-02T04:11:22;101184.22;;;11.38;79.69
55550;BME280;41397;49.972;18.944;2024-03-02T04:14:23;101183.83;;;11.42;79.55
55550;BME280;41397;49.972;18.944;2024-03-02T04:17:24;101185.20;;;11.48;79.49
55550;BME280;41397;49.972;18.944;2024-03-02T04:20:29;101183.98;;;11.52;79.22
55550;BME280;41397;49.972;18.944;2024-03-02T04:23:30;101177.39;;;11.54;78.91
55550;BME280;41397;49.972;18.944;2024-03-02T04:26:32;101177.39;;;11.54;78.86
55550;BME280;41397;49.972;18.944;2024-03-02T04:29:33;101178.12;;;11.56;78.89
55550;BME280;41397;49.972;18.944;2024-03-02T04:32:37;101178.88;;;11.59;78.74
55550;BME280;41397;49.972;18.944;2024-03-02T04:35:39;101180.24;;;11.53;78.49
55550;BME280;41397;49.972;18.944;2024-03-02T04:38:40;101187.23;;;11.57;78.73
55550;BME280;41397;49.972;18.944;2024-03-02T04:41:41;101181.34;;;11.50;78.58
55550;BME280;41397;49.972;18.944;2024-03-02T04:44:47;101189.05;;;11.45;78.56
55550;BME280;41397;49.972;18.944;2024-03-02T04:47:48;101187.68;;;11.40;78.73
55550;BME280;41397;49.972;18.944;2024-03-02T04:50:49;101191.26;;;11.29;78.85
55550;BME280;41397;49.972;18.944;2024-03-02T04:53:50;101195.00;;;11.28;78.98
55550;BME280;41397;49.972;18.944;2024-03-02T04:56:55;101189.25;;;11.20;79.00
55550;BME280;41397;49.972;18.944;2024-03-02T04:59:56;101187.38;;;11.20;78.97
55550;BME280;41397;49.972;18.944;2024-03-02T05:02:57;101190.74;;;11.24;78.97
55550;BME280;41397;49.972;18.944;2024-03-02T05:05:58;101199.96;;;11.23;79.00
55550;BME280;41397;49.972;18.944;2024-03-02T05:09:03;101206.68;;;11.19;78.94
55550;BME280;41397;49.972;18.944;2024-03-02T05:12:04;101210.53;;;11.16;79.06
55550;BME280;41397;49.972;18.944;2024-03-02T05:15:18;101196.95;;;11.15;78.92
55550;BME280;41397;49.972;18.944;2024-03-02T05:18:19;101207.86;;;11.03;78.98
55550;BME280;41397;49.972;18.944;2024-03-02T05:21:20;101215.06;;;11.04;79.03
55550;BME280;41397;49.972;18.944;2024-03-02T05:24:21;101214.68;;;10.98;78.83
55550;BME280;41397;49.972;18.944;2024-03-02T05:27:23;101217.27;;;10.99;78.84
55550;BME280;41397;49.972;18.944;2024-03-02T05:30:24;101219.16;;;10.99;78.64
55550;BME280;41397;49.972;18.944;2024-03-02T05:33:26;101215.59;;;10.85;78.99
55550;BME280;41397;49.972;18.944;2024-03-02T05:36:29;101219.45;;;10.83;79.04
55550;BME280;41397;49.972;18.944;2024-03-02T05:39:30;101220.05;;;10.75;78.80
55550;BME280;41397;49.972;18.944;2024-03-02T05:42:31;101214.52;;;10.64;79.23
55550;BME280;41397;49.972;18.944;2024-03-02T05:45:32;101218.99;;;10.65;79.14
55550;BME280;41397;49.972;18.944;2024-03-02T05:48:33;101221.60;;;10.66;79.05
55550;BME280;41397;49.972;18.944;2024-03-02T05:51:35;101224.32;;;10.66;79.22
55550;BME280;41397;49.972;18.944;2024-03-02T05:54:36;101223.02;;;10.72;79.03
55550;BME280;41397;49.972;18.944;2024-03-02T05:57:38;101233.01;;;10.60;78.96
55550;BME280;41397;49.972;18.944;2024-03-02T06:00:50;101238.94;;;10.54;79.10
55550;BME280;41397;49.972;18.944;2024-03-02T06:03:51;101239.81;;;10.55;79.19
55550;BME280;41397;49.972;18.944;2024-03-02T06:06:52;101240.34;;;10.60;79.38
55550;BME280;41397;49.972;18.944;2024-03-02T06:09:56;101238.91;;;10.67;79.15
55550;BME280;41397;49.972;18.944;2024-03-02T06:12:57;101238.44;;;10.73;79.03
55550;BME280;41397;49.972;18.944;2024-03-02T06:15:59;101246.17;;;10.79;78.90
55550;BME280;41397;49.972;18.944;2024-03-02T06:19:01;101241.57;;;10.80;78.67
55550;BME280;41397;49.972;18.944;2024-03-02T06:22:03;101247.17;;;10.78;78.68
55550;BME280;41397;49.972;18.944;2024-03-02T06:25:05;101250.67;;;10.80;78.94
55550;BME280;41397;49.972;18.944;2024-03-02T06:28:06;101255.54;;;10.88;78.96
55550;BME280;41397;49.972;18.944;2024-03-02T06:31:08;101246.13;;;10.92;78.73
55550;BME280;41397;49.972;18.944;2024-03-02T06:34:09;101241.04;;;10.99;78.87
55550;BME280;41397;49.972;18.944;2024-03-02T06:37:10;101248.62;;;10.95;78.33
55550;BME280;41397;49.972;18.944;2024-03-02T06:40:11;101251.26;;;10.97;78.05
55550;BME280;41397;49.972;18.944;2024-03-02T06:43:12;101257.02;;;11.05;78.40
55550;BME280;41397;49.972;18.944;2024-03-02T06:46:14;101262.36;;;11.06;77.97
55550;BME280;41397;49.972;18.944;2024-03-02T06:49:16;101251.17;;;11.09;78.52
55550;BME280;41397;49.972;18.944;2024-03-02T06:52:21;101251.70;;;11.15;78.20
55550;BME280;41397;49.972;18.944;2024-03-02T06:55:27;101249.72;;;11.17;78.22
55550;BME280;41397;49.972;18.944;2024-03-02T06:58:28;101251.10;;;11.22;78.01
55550;BME280;41397;49.972;18.944;2024-03-02T07:01:29;101257.98;;;11.28;78.06
55550;BME280;41397;49.972;18.944;2024-03-02T07:04:30;101254.76;;;11.34;78.05
55550;BME280;41397;49.972;18.944;2024-03-02T07:07:31;101252.78;;;11.36;78.09
55550;BME280;41397;49.972;18.944;2024-03-02T07:10:32;101260.88;;;11.38;77.88
55550;BME280;41397;49.972;18.944;2024-03-02T07:13:34;101263.49;;;11.39;77.57
55550;BME280;41397;49.972;18.944;2024-03-02T07:16:37;101265.74;;;11.45;77.47
55550;BME280;41397;49.972;18.944;2024-03-02T07:19:40;101266.99;;;11.41;77.37
55550;BME280;41397;49.972;18.944;2024-03-02T07:22:41;101272.56;;;11.40;77.28
55550;BME280;41397;49.972;18.944;2024-03-02T07:25:42;101265.36;;;11.39;77.10
55550;BME280;41397;49.972;18.944;2024-03-02T07:28:45;101276.32;;;11.39;77.38
55550;BME280;41397;49.972;18.944;2024-03-02T07:31:46;101269.17;;;11.25;77.61
55550;BME280;41397;49.972;18.944;2024-03-02T07:34:47;101272.14;;;11.22;77.88
55550;BME280;41397;49.972;18.944;2024-03-02T07:37:49;101268.82;;;11.29;78.02
55550;BME280;41397;49.972;18.944;2024-03-02T07:40:50;101267.20;;;11.27;78.09
55550;BME280;41397;49.972;18.944;2024-03-02T07:43:53;101274.68;;;11.36;78.06
55550;BME280;41397;49.972;18.944;2024-03-02T07:46:55;101278.56;;;11.45;77.96
55550;BME280;41397;49.972;18.944;2024-03-02T07:49:56;101282.70;;;11.50;77.55
55550;BME280;41397;49.972;18.944;2024-03-02T07:52:57;101288.83;;;11.54;77.50
55550;BME280;41397;49.972;18.944;2024-03-02T07:55:58;101285.60;;;11.60;77.33
55550;BME280;41397;49.972;18.944;2024-03-02T07:59:03;101292.57;;;11.64;77.29
55550;BME280;41397;49.972;18.944;2024-03-02T08:02:05;101292.73;;;11.74;77.08
55550;BME280;41397;49.972;18.944;2024-03-02T08:05:08;101294.96;;;11.69;76.98
55550;BME280;41397;49.972;18.944;2024-03-02T08:08:13;101299.84;;;11.76;76.82
55550;BME280;41397;49.972;18.944;2024-03-02T08:11:14;101305.31;;;11.76;76.82
55550;BME280;41397;49.972;18.944;2024-03-02T08:14:15;101302.44;;;11.78;76.61
55550;BME280;41397;49.972;18.944;2024-03-02T08:17:16;101300.91;;;11.87;76.79
55550;BME280;41397;49.972;18.944;2024-03-02T08:20:18;101300.41;;;11.93;76.64
55550;BME280;41397;49.972;18.944;2024-03-02T08:23:19;101299.04;;;11.98;76.98
55550;BME280;41397;49.972;18.944;2024-03-02T08:26:21;101296.66;;;12.05;76.58
55550;BME280;41397;49.972;18.944;2024-03-02T08:29:22;101299.17;;;12.08;76.62
55550;BME280;41397;49.972;18.944;2024-03-02T08:32:24;101295.96;;;12.14;76.45
55550;BME280;41397;49.972;18.944;2024-03-02T08:35:25;101298.05;;;12.22;76.54
55550;BME280;41397;49.972;18.944;2024-03-02T08:38:27;101295.56;;;12.30;76.45
55550;BME280;41397;49.972;18.944;2024-03-02T08:41:28;101291.70;;;12.33;76.09
55550;BME280;41397;49.972;18.944;2024-03-02T08:44:29;101305.80;;;12.39;76.04
55550;BME280;41397;49.972;18.944;2024-03-02T08:47:33;101302.55;;;12.34;75.81
55550;BME280;41397;49.972;18.944;2024-03-02T08:50:35;101307.18;;;12.34;75.83
55550;BME280;41397;49.972;18.944;2024-03-02T08:53:36;101299.45;;;12.39;75.87
55550;BME280;41397;49.972;18.944;2024-03-02T08:56:39;101311.03;;;12.42;76.08
55550;BME280;41397;49.972;18.944;2024-03-02T08:59:41;101309.53;;;12.27;76.12
55550;BME280;41397;49.972;18.944;2024-03-02T09:02:44;101310.03;;;12.32;76.36
55550;BME280;41397;49.972;18.944;2024-03-02T09:05:45;101312.52;;;12.35;76.50
55550;BME280;41397;49.972;18.944;2024-03-02T09:08:46;101312.66;;;12.34;76.68
55550;BME280;41397;49.972;18.944;2024-03-02T09:11:50;101311.29;;;12.28;76.94
55550;BME280;41397;49.972;18.944;2024-03-02T09:14:51;101305.19;;;12.36;77.12
55550;BME280;41397;49.972;18.944;2024-03-02T09:17:52;101312.66;;;12.34;77.19
55550;BME280;41397;49.972;18.944;2024-03-02T09:20:53;101314.55;;;12.33;77.20
55550;BME280;41397;49.972;18.944;2024-03-02T09:23:57;101318.77;;;12.37;77.31
55550;BME280;41397;49.972;18.944;2024-03-02T09:26:59;101320.64;;;12.37;77.10
55550;BME280;41397;49.972;18.944;2024-03-02T09:30:01;101323.24;;;12.38;77.04
55550;BME280;41397;49.972;18.944;2024-03-02T09:33:03;101321.75;;;12.34;77.44
55550;BME280;41397;49.972;18.944;2024-03-02T09:36:05;101333.48;;;12.36;77.61
55550;BME280;41397;49.972;18.944;2024-03-02T09:39:10;101334.10;;;12.40;77.35
55550;BME280;41397;49.972;18.944;2024-03-02T09:42:12;101334.10;;;12.40;77.66
55550;BME280;41397;49.972;18.944;2024-03-02T09:45:14;101337.09;;;12.37;77.92
55550;BME280;41397;49.972;18.944;2024-03-02T09:48:15;101345.33;;;12.37;78.08
55550;BME280;41397;49.972;18.944;2024-03-02T09:51:20;101341.83;;;12.35;77.67
55550;BME280;41397;49.972;18.944;2024-03-02T09:54:22;101349.18;;;12.34;77.69
55550;BME280;41397;49.972;18.944;2024-03-02T09:57:23;101350.05;;;12.35;77.37
55550;BME280;41397;49.972;18.944;2024-03-02T10:00:24;101352.04;;;12.33;77.31
55550;BME280;41397;49.972;18.944;2024-03-02T10:03:26;101345.33;;;12.37;77.30
55550;BME280;41397;49.972;18.944;2024-03-02T10:06:29;101354.31;;;12.39;77.40
55550;BME280;41397;49.972;18.944;2024-03-02T10:09:31;101351.57;;;12.39;77.52
55550;BME280;41397;49.972;18.944;2024-03-02T10:12:32;101348.07;;;12.37;77.21
55550;BME280;41397;49.972;18.944;2024-03-02T10:15:33;101349.69;;;12.39;77.32
55550;BME280;41397;49.972;18.944;2024-03-02T10:18:34;101347.45;;;12.33;77.21
55550;BME280;41397;49.972;18.944;2024-03-02T10:21:35;101356.55;;;12.34;77.52
55550;BME280;41397;49.972;18.944;2024-03-02T10:24:42;101357.05;;;12.39;77.59
55550;BME280;41397;49.972;18.944;2024-03-02T10:27:49;101351.43;;;12.40;77.48
55550;BME280;41397;49.972;18.944;2024-03-02T10:30:51;101360.41;;;12.42;77.42
55550;BME280;41397;49.972;18.944;2024-03-02T10:33:59;101361.42;;;12.41;77.50
55550;BME280;41397;49.972;18.944;2024-03-02T10:37:01;101362.15;;;12.43;77.86
55550;BME280;41397;49.972;18.944;2024-03-02T10:40:06;101362.28;;;12.42;78.02
55550;BME280;41397;49.972;18.944;2024-03-02T10:43:10;101353.92;;;12.43;78.19
55550;BME280;41397;49.972;18.944;2024-03-02T10:46:14;101360.41;;;12.42;78.59
55550;BME280;41397;49.972;18.944;2024-03-02T10:49:18;101365.90;;;12.42;78.37
55550;BME280;41397;49.972;18.944;2024-03-02T10:52:20;101368.39;;;12.46;78.34
55550;BME280;41397;49.972;18.944;2024-03-02T10:55:23;101356.91;;;12.40;78.40
55550;BME280;41397;49.972;18.944;2024-03-02T10:58:27;101359.80;;;12.50;78.51
55550;BME280;41397;49.972;18.944;2024-03-02T11:01:32;101353.92;;;12.55;78.61
55550;BME280;41397;49.972;18.944;2024-03-02T11:04:35;101358.93;;;12.61;78.47
55550;BME280;41397;49.972;18.944;2024-03-02T11:07:42;101356.45;;;12.58;78.42
55550;BME280;41397;49.972;18.944;2024-03-02T11:10:50;101357.81;;;12.63;77.94
55550;BME280;41397;49.972;18.944;2024-03-02T11:13:56;101353.80;;;12.68;77.40
55550;BME280;41397;49.972;18.944;2024-03-02T11:17:03;101337.84;;;12.73;77.70
55550;BME280;41397;49.972;18.944;2024-03-02T11:20:08;101337.47;;;12.77;77.83
55550;BME280;41397;49.972;18.944;2024-03-02T11:23:09;101341.09;;;12.78;77.83
55550;BME280;41397;49.972;18.944;2024-03-02T11:26:19;101331.58;;;12.82;78.24
55550;BME280;41397;49.972;18.944;2024-03-02T11:32:34;101329.97;;;12.91;78.13
55550;BME280;41397;49.972;18.944;2024-03-02T11:35:42;101326.21;;;12.92;78.09
55550;BME280;41397;49.972;18.944;2024-03-02T11:38:44;101327.68;;;12.96;78.58
55550;BME280;41397;49.972;18.944;2024-03-02T11:41:47;101322.34;;;12.94;78.45
55550;BME280;41397;49.972;18.944;2024-03-02T11:44:48;101333.80;;;12.99;78.45
55550;BME280;41397;49.972;18.944;2024-03-02T11:47:50;101326.70;;;12.97;78.68
55550;BME280;41397;49.972;18.944;2024-03-02T11:50:52;101330.31;;;12.97;78.66
55550;BME280;41397;49.972;18.944;2024-03-02T11:53:56;101329.07;;;13.01;78.83
55550;BME280;41397;49.972;18.944;2024-03-02T11:57:01;101326.06;;;13.04;78.92
55550;BME280;41397;49.972;18.944;2024-03-02T12:00:03;101331.57;;;13.04;79.13
55550;BME280;41397;49.972;18.944;2024-03-02T12:03:08;101329.94;;;13.02;79.45
55550;BME280;41397;49.972;18.944;2024-03-02T12:06:12;101330.92;;;13.01;79.75
55550;BME280;41397;49.972;18.944;2024-03-02T12:09:14;101330.80;;;13.02;79.63
55550;BME280;41397;49.972;18.944;2024-03-02T12:12:15;101321.29;;;13.06;80.02
55550;BME280;41397;49.972;18.944;2024-03-02T12:15:27;101321.29;;;13.06;80.45
55550;BME280;41397;49.972;18.944;2024-03-02T12:18:28;101321.19;;;13.08;80.42
55550;BME280;41397;49.972;18.944;2024-03-02T12:21:29;101318.69;;;13.05;80.39
55550;BME280;41397;49.972;18.944;2024-03-02T12:24:30;101327.80;;;13.05;80.53
55550;BME280;41397;49.972;18.944;2024-03-02T12:27:31;101327.54;;;13.08;80.68
55550;BME280;41397;49.972;18.944;2024-03-02T12:30:35;101335.52;;;13.11;80.60
55550;BME280;41397;49.972;18.944;2024-03-02T12:33:36;101333.41;;;13.15;81.08
55550;BME280;41397;49.972;18.944;2024-03-02T12:36:38;101326.79;;;13.18;80.89
55550;BME280;41397;49.972;18.944;2024-03-02T12:39:40;101323.77;;;13.21;80.69
55550;BME280;41397;49.972;18.944;2024-03-02T12:45:13;101318.01;;;13.24;81.13
55550;BME280;41397;49.972;18.944;2024-03-02T12:48:14;101312.52;;;13.24;81.12
55550;BME280;41397;49.972;18.944;2024-03-02T12:51:15;101315.05;;;13.27;81.34
55550;BME280;41397;49.972;18.944;2024-03-02T12:54:22;101313.91;;;13.29;81.19
55550;BME280;41397;49.972;18.944;2024-03-02T12:57:25;101316.40;;;13.32;81.34
55550;BME280;41397;49.972;18.944;2024-03-02T13:00:28;101313.38;;;13.36;81.38
55550;BME280;41397;49.972;18.944;2024-03-02T13:03:39;101315.00;;;13.38;81.67
55550;BME280;41397;49.972;18.944;2024-03-02T13:06:40;101309.38;;;13.40;81.64
55550;BME280;41397;49.972;18.944;2024-03-02T13:09:47;101297.27;;;13.42;81.26
55550;BME280;41397;49.972;18.944;2024-03-02T13:12:48;101313.21;;;13.48;81.40
55550;BME280;41397;49.972;18.944;2024-03-02T13:15:49;101302.97;;;13.50;81.61
55550;BME280;41397;49.972;18.944;2024-03-02T13:18:50;101308.32;;;13.52;81.87
55550;BME280;41397;49.972;18.944;2024-03-02T13:21:55;101308.32;;;13.52;81.56
55550;BME280;41397;49.972;18.944;2024-03-02T13:24:57;101294.46;;;13.53;81.41
55550;BME280;41397;49.972;18.944;2024-03-02T13:28:02;101297.92;;;13.55;81.57
55550;BME280;41397;49.972;18.944;2024-03-02T13:31:04;101288.69;;;13.57;81.54
55550;BME280;41397;49.972;18.944;2024-03-02T13:34:05;101293.05;;;13.59;81.61
55550;BME280;41397;49.972;18.944;2024-03-02T13:37:09;101291.77;;;13.63;81.59
55550;BME280;41397;49.972;18.944;2024-03-02T13:40:10;101288.74;;;13.66;81.35
55550;BME280;41397;49.972;18.944;2024-03-02T13:43:20;101296.01;;;13.67;81.66
55550;BME280;41397;49.972;18.944;2024-03-02T13:46:21;101291.38;;;13.68;82.06
55550;BME280;41397;49.972;18.944;2024-03-02T13:49:22;101288.47;;;13.69;81.69
55550;BME280;41397;49.972;18.944;2024-03-02T13:52:24;101288.36;;;13.71;81.56
55550;BME280;41397;49.972;18.944;2024-03-02T13:55:28;101285.48;;;13.72;81.73
55550;BME280;41397;49.972;18.944;2024-03-02T13:58:29;101286.36;;;13.73;81.63
55550;BME280;41397;49.972;18.944;2024-03-02T14:01:30;101286.20;;;13.74;82.27
55550;BME280;41397;49.972;18.944;2024-03-02T14:04:35;101281.45;;;13.76;82.73
55550;BME280;41397;49.972;18.944;2024-03-02T14:07:37;101272.19;;;13.77;82.48
55550;BME280;41397;49.972;18.944;2024-03-02T14:10:38;101279.29;;;13.80;82.23
55550;BME280;41397;49.972;18.944;2024-03-02T14:13:39;101278.16;;;13.83;82.72
55550;BME280;41397;49.972;18.944;2024-03-02T14:16:40;101269.05;;;13.82;82.74
55550;BME280;41397;49.972;18.944;2024-03-02T14:19:41;101273.67;;;13.82;83.04
55550;BME280;41397;49.972;18.944;2024-03-02T14:22:42;101267.31;;;13.81;83.67
55550;BME280;41397;49.972;18.944;2024-03-02T14:25:44;101268.05;;;13.83;83.54
55550;BME280;41397;49.972;18.944;2024-03-02T14:28:45;101268.77;;;13.85;83.07
55550;BME280;41397;49.972;18.944;2024-03-02T14:31:46;101270.53;;;13.86;83.36
55550;BME280;41397;49.972;18.944;2024-03-02T14:34:52;101270.38;;;13.88;83.18
55550;BME280;41397;49.972;18.944;2024-03-02T14:37:53;101279.26;;;13.91;82.88
55550;BME280;41397;49.972;18.944;2024-03-02T14:40:54;101277.21;;;13.93;83.19
55550;BME280;41397;49.972;18.944;2024-03-02T14:43:55;101279.84;;;13.95;83.34
55550;BME280;41397;49.972;18.944;2024-03-02T14:46:59;101272.45;;;13.95;83.15
55550;BME280;41397;49.972;18.944;2024-03-02T14:50:00;101275.95;;;13.97;83.09
55550;BME280;41397;49.972;18.944;2024-03-02T14:53:07;101274.93;;;13.98;83.00
55550;BME280;41397;49.972;18.944;2024-03-02T14:56:08;101278.55;;;13.99;82.79
55550;BME280;41397;49.972;18.944;2024-03-02T14:59:10;101272.05;;;14.00;82.90
55550;BME280;41397;49.972;18.944;2024-03-02T15:02:11;101274.65;;;14.02;82.98
55550;BME280;41397;49.972;18.944;2024-03-02T15:05:15;101276.55;;;14.01;82.75
55550;BME280;41397;49.972;18.944;2024-03-02T15:08:16;101275.68;;;14.01;82.43
55550;BME280;41397;49.972;18.944;2024-03-02T15:11:17;101277.68;;;13.98;82.74
55550;BME280;41397;49.972;18.944;2024-03-02T15:14:19;101274.93;;;13.98;82.97
55550;BME280;41397;49.972;18.944;2024-03-02T15:17:21;101276.07;;;13.96;82.73
55550;BME280;41397;49.972;18.944;2024-03-02T15:20:22;101265.22;;;13.94;82.59
55550;BME280;41397;49.972;18.944;2024-03-02T15:23:23;101268.26;;;13.91;82.69
55550;BME280;41397;49.972;18.944;2024-03-02T15:26:25;101263.62;;;13.92;82.58
55550;BME280;41397;49.972;18.944;2024-03-02T15:29:26;101260.23;;;13.88;82.58
55550;BME280;41397;49.972;18.944;2024-03-02T15:32:31;101262.29;;;13.86;82.43
55550;BME280;41397;49.972;18.944;2024-03-02T15:35:34;101259.66;;;13.85;82.54
55550;BME280;41397;49.972;18.944;2024-03-02T15:38:38;101256.16;;;13.83;82.50
55550;BME280;41397;49.972;18.944;2024-03-02T15:41:40;101261.93;;;13.80;82.88
55550;BME280;41397;49.972;18.944;2024-03-02T15:44:43;101259.61;;;13.75;83.31
55550;BME280;41397;49.972;18.944;2024-03-02T15:47:44;101254.12;;;13.75;83.30